sensor_id;sensor_type;location;lat;lon;timestamp;temperature;humidity
25923;DHT22;13725;51.170;4.442;2023-02-28T00:01:30;2.10;99.90
25923;DHT22;13725;51.170;4.442;2023-02-28T00:03:56;2.10;99.90
25923;DHT22;13725;51.170;4.442;2023-02-28T00:06:22;2.00;99.90
25923;DHT22;13725;51.170;4.442;2023-02-28T00:08:49;2.00;99.90
25923;DHT22;13725;51.170;4.442;2023-02-28T00:11:15;2.00;99.90
25923;DHT22;13725;51.170;4.442;2023-02-28T00:13:44;2.00;99.90
25923;DHT22;13725;51.170;4.442;2023-02-28T00:16:14;2.10;99.90
25923;DHT22;13725;51.170;4.442;2023-02-28T00:18:41;2.00;99.90
25923;DHT22;13725;51.170;4.442;2023-02-28T00:21:07;2.00;99.90
25923;DHT22;13725;51.170;4.442;2023-02-28T00:23:33;2.00;99.90
25923;DHT22;13725;51.170;4.442;2023-02-28T00:25:59;1.90;99.90
25923;DHT22;13725;51.170;4.442;2023-02-28T00:28:25;1.90;99.90
25923;DHT22;13725;51.170;4.442;2023-02-28T00:30:51;1.90;99.90
25923;DHT22;13725;51.170;4.442;2023-02-28T00:33:17;1.90;99.90
25923;DHT22;13725;51.170;4.442;2023-02-28T00:35:42;1.90;99.90
25923;DHT22;13725;51.170;4.442;2023-02-28T00:38:09;1.80;99.90
25923;DHT22;13725;51.170;4.442;2023-02-28T00:40:35;1.80;99.90
25923;DHT22;13725;51.170;4.442;2023-02-28T00:43:00;1.90;99.90
25923;DHT22;13725;51.170;4.442;2023-02-28T00:45:26;1.90;99.90
25923;DHT22;13725;51.170;4.442;2023-02-28T00:47:52;1.80;99.90
25923;DHT22;13725;51.170;4.442;2023-02-28T00:50:18;1.80;99.90
25923;DHT22;13725;51.170;4.442;2023-02-28T00:52:45;1.70;99.90
25923;DHT22;13725;51.170;4.442;2023-02-28T00:55:13;1.70;99.90
25923;DHT22;13725;51.170;4.442;2023-02-28T00:57:39;1.80;99.90
25923;DHT22;13725;51.170;4.442;2023-02-28T01:00:06;1.70;99.90
25923;DHT22;13725;51.170;4.442;2023-02-28T01:02:32;1.70;99.90
25923;DHT22;13725;51.170;4.442;2023-02-28T01:04:58;1.70;99.90
25923;DHT22;13725;51.170;4.442;2023-02-28T01:07:24;1.70;99.90
25923;DHT22;13725;51.170;4.442;2023-02-28T01:09:49;1.70;99.90
25923;DHT22;13725;51.170;4.442;2023-02-28T01:12:16;1.60;99.90
25923;DHT22;13725;51.170;4.442;2023-02-28T01:14:42;1.60;99.90
25923;DHT22;13725;51.170;4.442;2023-02-28T01:17:08;1.60;99.90
25923;DHT22;13725;51.170;4.442;2023-02-28T01:19:34;1.60;99.90
25923;DHT22;13725;51.170;4.442;2023-02-28T01:22:03;1.60;99.90
25923;DHT22;13725;51.170;4.442;2023-02-28T01:24:30;1.60;99.90
25923;DHT22;13725;51.170;4.442;2023-02-28T01:26:55;1.60;99.90
25923;DHT22;13725;51.170;4.442;2023-02-28T01:29:21;1.80;99.90
25923;DHT22;13725;51.170;4.442;2023-02-28T01:31:47;1.60;99.90
25923;DHT22;13725;51.170;4.442;2023-02-28T01:34:12;1.50;99.90
25923;DHT22;13725;51.170;4.442;2023-02-28T01:36:38;1.50;99.90
25923;DHT22;13725;51.170;4.442;2023-02-28T01:39:04;1.50;99.90
25923;DHT22;13725;51.170;4.442;2023-02-28T01:41:32;1.50;99.90
25923;DHT22;13725;51.170;4.442;2023-02-28T01:46:30;1.40;99.90
25923;DHT22;13725;51.170;4.442;2023-02-28T01:49:16;1.40;99.90
25923;DHT22;13725;51.170;4.442;2023-02-28T01:51:46;1.30;99.90
25923;DHT22;13725;51.170;4.442;2023-02-28T01:54:25;1.30;99.90
25923;DHT22;13725;51.170;4.442;2023-02-28T01:57:01;1.20;99.90
25923;DHT22;13725;51.170;4.442;2023-02-28T01:59:35;1.20;99.90
25923;DHT22;13725;51.170;4.442;2023-02-28T02:02:04;1.20;99.90
25923;DHT22;13725;51.170;4.442;2023-02-28T02:04:41;1.10;99.90
25923;DHT22;13725;51.170;4.442;2023-02-28T02:07:10;1.10;99.90
25923;DHT22;13725;51.170;4.442;2023-02-28T02:09:36;1.10;99.90
25923;DHT22;13725;51.170;4.442;2023-02-28T02:12:28;1.20;99.90
25923;DHT22;13725;51.170;4.442;2023-02-28T02:15:06;1.00;99.90
25923;DHT22;13725;51.170;4.442;2023-02-28T02:17:42;1.00;99.90
25923;DHT22;13725;51.170;4.442;2023-02-28T02:26:31;1.00;99.90
25923;DHT22;13725;51.170;4.442;2023-02-28T02:29:25;1.00;99.90
25923;DHT22;13725;51.170;4.442;2023-02-28T02:32:05;0.90;99.90
25923;DHT22;13725;51.170;4.442;2023-02-28T02:42:52;0.90;99.90
25923;DHT22;13725;51.170;4.442;2023-02-28T02:45:53;0.90;99.90
25923;DHT22;13725;51.170;4.442;2023-02-28T02:48:25;0.90;99.90
25923;DHT22;13725;51.170;4.442;2023-02-28T02:50:55;0.90;99.90
25923;DHT22;13725;51.170;4.442;2023-02-28T02:53:28;0.90;99.90
25923;DHT22;13725;51.170;4.442;2023-02-28T02:55:58;0.90;99.90
25923;DHT22;13725;51.170;4.442;2023-02-28T02:58:29;0.90;99.90
25923;DHT22;13725;51.170;4.442;2023-02-28T03:00:59;0.90;99.90
25923;DHT22;13725;51.170;4.442;2023-02-28T03:03:28;0.90;99.90
25923;DHT22;13725;51.170;4.442;2023-02-28T03:05:57;0.90;99.90
25923;DHT22;13725;51.170;4.442;2023-02-28T03:08:23;0.90;99.90
25923;DHT22;13725;51.170;4.442;2023-02-28T03:10:51;0.80;99.90
25923;DHT22;13725;51.170;4.442;2023-02-28T03:16:37;0.90;99.90
25923;DHT22;13725;51.170;4.442;2023-02-28T03:27:16;0.80;99.90
25923;DHT22;13725;51.170;4.442;2023-02-28T03:29:50;0.80;99.90
25923;DHT22;13725;51.170;4.442;2023-02-28T03:32:40;0.80;99.90
25923;DHT22;13725;51.170;4.442;2023-02-28T03:35:16;0.70;99.90
25923;DHT22;13725;51.170;4.442;2023-02-28T03:37:49;0.70;99.90
25923;DHT22;13725;51.170;4.442;2023-02-28T03:40:20;0.80;99.90
25923;DHT22;13725;51.170;4.442;2023-02-28T03:42:49;0.80;99.90
25923;DHT22;13725;51.170;4.442;2023-02-28T03:45:16;0.80;99.90
25923;DHT22;13725;51.170;4.442;2023-02-28T03:52:49;0.90;99.90
25923;DHT22;13725;51.170;4.442;2023-02-28T03:55:17;0.90;99.90
25923;DHT22;13725;51.170;4.442;2023-02-28T03:58:07;1.00;99.90
25923;DHT22;13725;51.170;4.442;2023-02-28T04:00:45;1.00;99.90
25923;DHT22;13725;51.170;4.442;2023-02-28T04:03:12;1.10;99.90
25923;DHT22;13725;51.170;4.442;2023-02-28T04:05:50;1.10;99.90
25923;DHT22;13725;51.170;4.442;2023-02-28T04:08:16;1.20;99.90
25923;DHT22;13725;51.170;4.442;2023-02-28T04:10:44;1.30;99.90
25923;DHT22;13725;51.170;4.442;2023-02-28T04:13:10;1.40;99.90
25923;DHT22;13725;51.170;4.442;2023-02-28T04:15:36;1.40;99.90
25923;DHT22;13725;51.170;4.442;2023-02-28T04:18:02;1.40;99.90
25923;DHT22;13725;51.170;4.442;2023-02-28T04:20:28;1.50;99.90
25923;DHT22;13725;51.170;4.442;2023-02-28T04:22:53;1.60;99.90
25923;DHT22;13725;51.170;4.442;2023-02-28T04:25:19;1.70;99.90
25923;DHT22;13725;51.170;4.442;2023-02-28T04:27:45;1.80;99.90
25923;DHT22;13725;51.170;4.442;2023-02-28T04:30:11;1.80;99.90
25923;DHT22;13725;51.170;4.442;2023-02-28T04:32:37;1.90;99.90
25923;DHT22;13725;51.170;4.442;2023-02-28T04:35:03;2.00;99.90
25923;DHT22;13725;51.170;4.442;2023-02-28T04:37:29;2.10;99.90
25923;DHT22;13725;51.170;4.442;2023-02-28T04:39:54;2.10;99.90
25923;DHT22;13725;51.170;4.442;2023-02-28T04:42:20;2.20;99.90
25923;DHT22;13725;51.170;4.442;2023-02-28T04:44:46;2.20;99.90
25923;DHT22;13725;51.170;4.442;2023-02-28T04:47:12;2.30;99.90
25923;DHT22;13725;51.170;4.442;2023-02-28T04:49:38;2.30;99.90
25923;DHT22;13725;51.170;4.442;2023-02-28T04:52:04;2.30;99.90
25923;DHT22;13725;51.170;4.442;2023-02-28T04:54:30;2.40;99.90
25923;DHT22;13725;51.170;4.442;2023-02-28T04:56:55;2.50;99.90
25923;DHT22;13725;51.170;4.442;2023-02-28T04:59:21;2.40;99.90
25923;DHT22;13725;51.170;4.442;2023-02-28T05:01:48;2.50;99.90
25923;DHT22;13725;51.170;4.442;2023-02-28T05:04:14;2.50;99.90
25923;DHT22;13725;51.170;4.442;2023-02-28T05:06:40;2.50;99.90
25923;DHT22;13725;51.170;4.442;2023-02-28T05:09:05;2.50;99.90
25923;DHT22;13725;51.170;4.442;2023-02-28T05:11:33;2.60;99.90
25923;DHT22;13725;51.170;4.442;2023-02-28T05:14:06;2.60;99.90
25923;DHT22;13725;51.170;4.442;2023-02-28T05:16:33;2.60;99.90
25923;DHT22;13725;51.170;4.442;2023-02-28T05:18:59;2.70;99.90
25923;DHT22;13725;51.170;4.442;2023-02-28T05:21:30;2.60;99.90
25923;DHT22;13725;51.170;4.442;2023-02-28T05:23:59;2.70;99.90
25923;DHT22;13725;51.170;4.442;2023-02-28T05:26:26;2.70;99.90
25923;DHT22;13725;51.170;4.442;2023-02-28T05:28:52;2.70;99.90
25923;DHT22;13725;51.170;4.442;2023-02-28T05:31:17;2.70;99.90
25923;DHT22;13725;51.170;4.442;2023-02-28T05:33:43;2.70;99.90
25923;DHT22;13725;51.170;4.442;2023-02-28T05:36:09;2.80;99.90
25923;DHT22;13725;51.170;4.442;2023-02-28T05:38:35;2.80;99.90
25923;DHT22;13725;51.170;4.442;2023-02-28T05:41:05;2.90;99.90
25923;DHT22;13725;51.170;4.442;2023-02-28T05:43:31;2.80;99.90
25923;DHT22;13725;51.170;4.442;2023-02-28T05:45:56;2.80;99.90
25923;DHT22;13725;51.170;4.442;2023-02-28T05:48:22;2.80;99.90
25923;DHT22;13725;51.170;4.442;2023-02-28T05:50:47;2.80;99.90
25923;DHT22;13725;51.170;4.442;2023-02-28T05:53:13;2.80;99.90
25923;DHT22;13725;51.170;4.442;2023-02-28T05:55:39;2.90;99.90
25923;DHT22;13725;51.170;4.442;2023-02-28T05:58:06;2.90;99.90
25923;DHT22;13725;51.170;4.442;2023-02-28T06:00:32;2.90;99.90
25923;DHT22;13725;51.170;4.442;2023-02-28T06:02:57;2.90;99.90
25923;DHT22;13725;51.170;4.442;2023-02-28T06:05:27;2.80;99.90
25923;DHT22;13725;51.170;4.442;2023-02-28T06:07:53;2.80;99.90
25923;DHT22;13725;51.170;4.442;2023-02-28T06:10:19;2.80;99.90
25923;DHT22;13725;51.170;4.442;2023-02-28T06:12:45;2.90;99.90
25923;DHT22;13725;51.170;4.442;2023-02-28T06:15:15;2.90;99.90
25923;DHT22;13725;51.170;4.442;2023-02-28T06:17:44;2.90;99.90
25923;DHT22;13725;51.170;4.442;2023-02-28T06:20:11;2.90;99.90
25923;DHT22;13725;51.170;4.442;2023-02-28T06:22:39;2.90;99.90
25923;DHT22;13725;51.170;4.442;2023-02-28T06:25:06;3.00;99.90
25923;DHT22;13725;51.170;4.442;2023-02-28T06:27:33;3.00;99.90
25923;DHT22;13725;51.170;4.442;2023-02-28T06:29:59;2.90;99.90
25923;DHT22;13725;51.170;4.442;2023-02-28T06:32:25;2.90;99.90
25923;DHT22;13725;51.170;4.442;2023-02-28T06:34:51;3.00;99.90
25923;DHT22;13725;51.170;4.442;2023-02-28T06:37:17;2.90;99.90
25923;DHT22;13725;51.170;4.442;2023-02-28T06:39:43;3.00;99.90
25923;DHT22;13725;51.170;4.442;2023-02-28T06:42:09;3.00;99.90
25923;DHT22;13725;51.170;4.442;2023-02-28T06:44:34;3.00;99.90
25923;DHT22;13725;51.170;4.442;2023-02-28T06:47:04;3.20;99.90
25923;DHT22;13725;51.170;4.442;2023-02-28T06:49:34;3.20;99.90
25923;DHT22;13725;51.170;4.442;2023-02-28T06:52:00;3.30;99.90
25923;DHT22;13725;51.170;4.442;2023-02-28T06:54:26;3.20;99.90
25923;DHT22;13725;51.170;4.442;2023-02-28T06:56:52;3.30;99.90
25923;DHT22;13725;51.170;4.442;2023-02-28T06:59:20;3.30;99.90
25923;DHT22;13725;51.170;4.442;2023-02-28T07:01:46;3.30;99.90
25923;DHT22;13725;51.170;4.442;2023-02-28T07:04:11;3.30;99.90
25923;DHT22;13725;51.170;4.442;2023-02-28T07:06:38;3.40;99.90
25923;DHT22;13725;51.170;4.442;2023-02-28T07:09:04;3.30;99.90
25923;DHT22;13725;51.170;4.442;2023-02-28T07:11:30;3.50;99.90
25923;DHT22;13725;51.170;4.442;2023-02-28T07:13:57;3.70;99.90
25923;DHT22;13725;51.170;4.442;2023-02-28T07:16:24;4.30;99.90
25923;DHT22;13725;51.170;4.442;2023-02-28T07:18:52;5.00;99.90
25923;DHT22;13725;51.170;4.442;2023-02-28T07:21:18;5.30;99.90
25923;DHT22;13725;51.170;4.442;2023-02-28T07:23:44;5.20;99.90
25923;DHT22;13725;51.170;4.442;2023-02-28T07:26:16;5.00;99.90
25923;DHT22;13725;51.170;4.442;2023-02-28T07:28:43;4.70;99.90
25923;DHT22;13725;51.170;4.442;2023-02-28T07:31:10;4.70;99.90
25923;DHT22;13725;51.170;4.442;2023-02-28T07:33:37;4.60;99.90
25923;DHT22;13725;51.170;4.442;2023-02-28T07:36:13;4.60;99.90
25923;DHT22;13725;51.170;4.442;2023-02-28T07:38:42;4.60;99.90
25923;DHT22;13725;51.170;4.442;2023-02-28T07:41:09;4.70;99.90
25923;DHT22;13725;51.170;4.442;2023-02-28T07:43:35;4.80;99.90
25923;DHT22;13725;51.170;4.442;2023-02-28T07:46:03;4.70;99.90
25923;DHT22;13725;51.170;4.442;2023-02-28T07:48:29;4.70;99.90
25923;DHT22;13725;51.170;4.442;2023-02-28T07:50:56;4.80;99.90
25923;DHT22;13725;51.170;4.442;2023-02-28T07:53:22;4.70;99.90
25923;DHT22;13725;51.170;4.442;2023-02-28T07:55:48;4.60;99.90
25923;DHT22;13725;51.170;4.442;2023-02-28T07:58:14;4.70;99.90
25923;DHT22;13725;51.170;4.442;2023-02-28T08:00:40;4.70;99.90
25923;DHT22;13725;51.170;4.442;2023-02-28T08:03:05;4.80;99.90
25923;DHT22;13725;51.170;4.442;2023-02-28T08:05:32;5.10;99.90
25923;DHT22;13725;51.170;4.442;2023-02-28T08:07:57;5.20;99.90
25923;DHT22;13725;51.170;4.442;2023-02-28T08:10:23;5.30;99.90
25923;DHT22;13725;51.170;4.442;2023-02-28T08:12:49;5.10;99.90
25923;DHT22;13725;51.170;4.442;2023-02-28T08:15:15;5.30;99.90
25923;DHT22;13725;51.170;4.442;2023-02-28T08:17:42;5.40;99.90
25923;DHT22;13725;51.170;4.442;2023-02-28T08:20:08;5.50;99.90
25923;DHT22;13725;51.170;4.442;2023-02-28T08:22:35;5.80;99.90
25923;DHT22;13725;51.170;4.442;2023-02-28T08:25:01;5.70;99.90
25923;DHT22;13725;51.170;4.442;2023-02-28T08:27:27;5.70;99.90
25923;DHT22;13725;51.170;4.442;2023-02-28T08:29:53;5.70;99.90
25923;DHT22;13725;51.170;4.442;2023-02-28T08:32:18;5.90;99.90
25923;DHT22;13725;51.170;4.442;2023-02-28T08:34:44;6.10;99.90
25923;DHT22;13725;51.170;4.442;2023-02-28T08:37:10;6.10;99.90
25923;DHT22;13725;51.170;4.442;2023-02-28T08:39:36;6.00;99.90
25923;DHT22;13725;51.170;4.442;2023-02-28T08:42:03;5.90;99.90
25923;DHT22;13725;51.170;4.442;2023-02-28T08:44:29;5.80;99.90
25923;DHT22;13725;51.170;4.442;2023-02-28T08:46:54;5.70;99.90
25923;DHT22;13725;51.170;4.442;2023-02-28T08:49:21;5.50;99.90
25923;DHT22;13725;51.170;4.442;2023-02-28T08:51:47;5.60;99.90
25923;DHT22;13725;51.170;4.442;2023-02-28T08:54:13;5.60;99.90
25923;DHT22;13725;51.170;4.442;2023-02-28T08:56:42;5.30;99.90
25923;DHT22;13725;51.170;4.442;2023-02-28T08:59:09;5.40;99.90
25923;DHT22;13725;51.170;4.442;2023-02-28T09:01:34;5.80;99.90
25923;DHT22;13725;51.170;4.442;2023-02-28T09:04:02;6.20;99.90
25923;DHT22;13725;51.170;4.442;2023-02-28T09:06:28;6.70;99.90
25923;DHT22;13725;51.170;4.442;2023-02-28T09:08:57;6.90;99.90
25923;DHT22;13725;51.170;4.442;2023-02-28T09:11:24;7.00;99.90
25923;DHT22;13725;51.170;4.442;2023-02-28T09:13:49;6.90;99.90
25923;DHT22;13725;51.170;4.442;2023-02-28T09:16:16;6.70;99.90
25923;DHT22;13725;51.170;4.442;2023-02-28T09:18:43;6.90;99.90
25923;DHT22;13725;51.170;4.442;2023-02-28T09:21:11;6.60;99.90
25923;DHT22;13725;51.170;4.442;2023-02-28T09:23:43;7.50;99.90
25923;DHT22;13725;51.170;4.442;2023-02-28T09:26:14;7.80;99.90
25923;DHT22;13725;51.170;4.442;2023-02-28T09:28:40;8.30;99.90
25923;DHT22;13725;51.170;4.442;2023-02-28T09:31:06;8.80;99.90
25923;DHT22;13725;51.170;4.442;2023-02-28T09:33:32;9.30;99.90
25923;DHT22;13725;51.170;4.442;2023-02-28T09:36:01;11.10;99.90
25923;DHT22;13725;51.170;4.442;2023-02-28T09:38:27;13.20;98.70
25923;DHT22;13725;51.170;4.442;2023-02-28T09:40:59;14.90;92.00
25923;DHT22;13725;51.170;4.442;2023-02-28T09:43:29;15.70;85.60
25923;DHT22;13725;51.170;4.442;2023-02-28T09:45:57;14.00;77.40
25923;DHT22;13725;51.170;4.442;2023-02-28T09:48:29;12.60;79.80
25923;DHT22;13725;51.170;4.442;2023-02-28T09:51:11;12.60;80.10
25923;DHT22;13725;51.170;4.442;2023-02-28T09:53:38;13.30;79.80
25923;DHT22;13725;51.170;4.442;2023-02-28T09:56:13;14.80;78.10
25923;DHT22;13725;51.170;4.442;2023-02-28T09:58:51;14.90;73.00
25923;DHT22;13725;51.170;4.442;2023-02-28T10:04:24;12.80;77.00
25923;DHT22;13725;51.170;4.442;2023-02-28T10:06:54;12.70;77.00
25923;DHT22;13725;51.170;4.442;2023-02-28T10:09:30;13.40;74.90
25923;DHT22;13725;51.170;4.442;2023-02-28T10:12:03;14.50;73.60
25923;DHT22;13725;51.170;4.442;2023-02-28T10:14:32;14.70;70.80
25923;DHT22;13725;51.170;4.442;2023-02-28T10:17:07;14.90;69.00
25923;DHT22;13725;51.170;4.442;2023-02-28T10:24:49;15.00;69.10
25923;DHT22;13725;51.170;4.442;2023-02-28T10:27:22;14.80;66.50
25923;DHT22;13725;51.170;4.442;2023-02-28T10:29:54;14.10;66.90
25923;DHT22;13725;51.170;4.442;2023-02-28T10:32:32;14.40;67.10
25923;DHT22;13725;51.170;4.442;2023-02-28T10:37:51;14.50;67.90
25923;DHT22;13725;51.170;4.442;2023-02-28T10:43:13;15.40;65.50
25923;DHT22;13725;51.170;4.442;2023-02-28T10:45:55;15.40;64.00
25923;DHT22;13725;51.170;4.442;2023-02-28T10:56:15;15.50;62.10
25923;DHT22;13725;51.170;4.442;2023-02-28T11:01:18;16.70;61.10
25923;DHT22;13725;51.170;4.442;2023-02-28T11:03:43;17.80;59.70
25923;DHT22;13725;51.170;4.442;2023-02-28T11:06:31;17.60;58.70
25923;DHT22;13725;51.170;4.442;2023-02-28T11:09:13;17.50;59.30
25923;DHT22;13725;51.170;4.442;2023-02-28T11:11:45;18.70;57.60
25923;DHT22;13725;51.170;4.442;2023-02-28T11:14:24;19.30;55.10
25923;DHT22;13725;51.170;4.442;2023-02-28T11:16:51;19.50;54.50
25923;DHT22;13725;51.170;4.442;2023-02-28T11:19:22;18.40;53.50
25923;DHT22;13725;51.170;4.442;2023-02-28T11:22:03;16.80;55.10
25923;DHT22;13725;51.170;4.442;2023-02-28T11:24:35;16.40;55.20
25923;DHT22;13725;51.170;4.442;2023-02-28T11:27:02;15.50;56.10
25923;DHT22;13725;51.170;4.442;2023-02-28T11:29:32;15.40;57.20
25923;DHT22;13725;51.170;4.442;2023-02-28T11:34:38;14.40;58.20
25923;DHT22;13725;51.170;4.442;2023-02-28T11:37:08;15.00;58.30
25923;DHT22;13725;51.170;4.442;2023-02-28T11:39:36;15.90;56.80
25923;DHT22;13725;51.170;4.442;2023-02-28T11:53:02;18.40;53.60
25923;DHT22;13725;51.170;4.442;2023-02-28T11:55:58;18.40;53.70
25923;DHT22;13725;51.170;4.442;2023-02-28T12:01:33;18.70;53.50
25923;DHT22;13725;51.170;4.442;2023-02-28T12:07:00;19.40;52.20
25923;DHT22;13725;51.170;4.442;2023-02-28T12:12:23;17.90;52.70
25923;DHT22;13725;51.170;4.442;2023-02-28T12:15:14;17.50;52.40
25923;DHT22;13725;51.170;4.442;2023-02-28T12:20:37;16.50;54.20
25923;DHT22;13725;51.170;4.442;2023-02-28T12:26:19;17.60;54.60
25923;DHT22;13725;51.170;4.442;2023-02-28T12:28:52;18.20;53.10
25923;DHT22;13725;51.170;4.442;2023-02-28T12:31:24;16.60;53.60
25923;DHT22;13725;51.170;4.442;2023-02-28T12:33:53;16.60;54.60
25923;DHT22;13725;51.170;4.442;2023-02-28T12:36:21;16.60;54.00
25923;DHT22;13725;51.170;4.442;2023-02-28T12:39:00;15.80;54.30
25923;DHT22;13725;51.170;4.442;2023-02-28T12:44:27;15.30;55.00
25923;DHT22;13725;51.170;4.442;2023-02-28T12:47:00;15.30;56.60
25923;DHT22;13725;51.170;4.442;2023-02-28T12:49:38;15.20;56.50
25923;DHT22;13725;51.170;4.442;2023-02-28T12:52:05;15.50;55.50
25923;DHT22;13725;51.170;4.442;2023-02-28T12:54:47;15.40;55.20
25923;DHT22;13725;51.170;4.442;2023-02-28T13:00:14;14.60;56.50
25923;DHT22;13725;51.170;4.442;2023-02-28T13:10:53;14.10;57.50
25923;DHT22;13725;51.170;4.442;2023-02-28T13:13:31;13.90;57.20
25923;DHT22;13725;51.170;4.442;2023-02-28T13:16:08;13.90;58.40
25923;DHT22;13725;51.170;4.442;2023-02-28T13:18:45;14.80;58.20
25923;DHT22;13725;51.170;4.442;2023-02-28T13:21:41;14.80;57.10
25923;DHT22;13725;51.170;4.442;2023-02-28T13:24:09;14.90;57.50
25923;DHT22;13725;51.170;4.442;2023-02-28T13:34:32;13.20;58.70
25923;DHT22;13725;51.170;4.442;2023-02-28T13:40:26;12.50;60.10
25923;DHT22;13725;51.170;4.442;2023-02-28T13:42:52;12.60;59.80
25923;DHT22;13725;51.170;4.442;2023-02-28T13:45:28;12.50;60.70
25923;DHT22;13725;51.170;4.442;2023-02-28T13:47:58;12.20;61.30
25923;DHT22;13725;51.170;4.442;2023-02-28T13:58:53;11.60;62.80
25923;DHT22;13725;51.170;4.442;2023-02-28T14:01:37;11.30;63.20
25923;DHT22;13725;51.170;4.442;2023-02-28T14:06:53;11.70;63.70
25923;DHT22;13725;51.170;4.442;2023-02-28T14:09:30;10.90;64.30
25923;DHT22;13725;51.170;4.442;2023-02-28T14:11:58;10.20;65.80
25923;DHT22;13725;51.170;4.442;2023-02-28T14:17:14;10.00;67.60
25923;DHT22;13725;51.170;4.442;2023-02-28T14:19:44;10.20;67.30
25923;DHT22;13725;51.170;4.442;2023-02-28T14:22:51;10.10;67.40
25923;DHT22;13725;51.170;4.442;2023-02-28T14:25:48;10.10;67.50
25923;DHT22;13725;51.170;4.442;2023-02-28T14:31:44;9.70;68.40
25923;DHT22;13725;51.170;4.442;2023-02-28T14:34:24;9.60;69.40
25923;DHT22;13725;51.170;4.442;2023-02-28T14:36:53;9.70;69.10
25923;DHT22;13725;51.170;4.442;2023-02-28T14:39:22;9.60;69.70
25923;DHT22;13725;51.170;4.442;2023-02-28T14:41:48;9.40;69.50
25923;DHT22;13725;51.170;4.442;2023-02-28T14:44:17;9.30;70.90
25923;DHT22;13725;51.170;4.442;2023-02-28T14:46:44;9.30;70.70
25923;DHT22;13725;51.170;4.442;2023-02-28T14:49:30;9.20;71.50
25923;DHT22;13725;51.170;4.442;2023-02-28T14:52:22;9.10;70.40
25923;DHT22;13725;51.170;4.442;2023-02-28T14:55:14;8.80;70.50
25923;DHT22;13725;51.170;4.442;2023-02-28T14:57:51;8.60;71.90
25923;DHT22;13725;51.170;4.442;2023-02-28T15:00:27;8.60;72.20
25923;DHT22;13725;51.170;4.442;2023-02-28T15:02:54;8.50;72.80
25923;DHT22;13725;51.170;4.442;2023-02-28T15:08:21;8.20;74.20
25923;DHT22;13725;51.170;4.442;2023-02-28T15:11:05;8.10;73.20
25923;DHT22;13725;51.170;4.442;2023-02-28T15:13:44;8.00;73.80
25923;DHT22;13725;51.170;4.442;2023-02-28T15:16:22;7.70;74.50
25923;DHT22;13725;51.170;4.442;2023-02-28T15:18:57;7.70;75.30
25923;DHT22;13725;51.170;4.442;2023-02-28T15:21:28;7.50;75.90
25923;DHT22;13725;51.170;4.442;2023-02-28T15:24:01;7.50;76.60
25923;DHT22;13725;51.170;4.442;2023-02-28T15:26:38;7.60;77.70
25923;DHT22;13725;51.170;4.442;2023-02-28T15:29:13;7.50;77.30
25923;DHT22;13725;51.170;4.442;2023-02-28T15:31:43;7.50;78.00
25923;DHT22;13725;51.170;4.442;2023-02-28T15:34:20;7.50;77.80
25923;DHT22;13725;51.170;4.442;2023-02-28T15:36:47;7.40;78.40
25923;DHT22;13725;51.170;4.442;2023-02-28T15:39:25;7.40;79.40
25923;DHT22;13725;51.170;4.442;2023-02-28T15:42:09;7.30;79.10
25923;DHT22;13725;51.170;4.442;2023-02-28T15:44:35;7.30;78.40
25923;DHT22;13725;51.170;4.442;2023-02-28T15:47:11;7.30;80.10
25923;DHT22;13725;51.170;4.442;2023-02-28T15:49:56;7.50;79.80
25923;DHT22;13725;51.170;4.442;2023-02-28T15:52:43;7.40;80.40
25923;DHT22;13725;51.170;4.442;2023-02-28T15:55:22;7.50;79.50
25923;DHT22;13725;51.170;4.442;2023-02-28T15:57:51;7.30;79.30
25923;DHT22;13725;51.170;4.442;2023-02-28T16:00:23;7.10;79.70
25923;DHT22;13725;51.170;4.442;2023-02-28T16:02:51;7.20;80.90
25923;DHT22;13725;51.170;4.442;2023-02-28T16:07:47;7.10;81.00
25923;DHT22;13725;51.170;4.442;2023-02-28T16:10:14;7.10;81.20
25923;DHT22;13725;51.170;4.442;2023-02-28T16:12:40;7.10;81.70
25923;DHT22;13725;51.170;4.442;2023-02-28T16:15:28;7.00;81.70
25923;DHT22;13725;51.170;4.442;2023-02-28T16:17:55;6.80;83.10
25923;DHT22;13725;51.170;4.442;2023-02-28T16:20:24;6.80;83.80
25923;DHT22;13725;51.170;4.442;2023-02-28T16:22:51;6.70;85.40
25923;DHT22;13725;51.170;4.442;2023-02-28T16:25:19;6.70;86.00
25923;DHT22;13725;51.170;4.442;2023-02-28T16:27:48;6.80;84.90
25923;DHT22;13725;51.170;4.442;2023-02-28T16:30:27;6.70;85.40
25923;DHT22;13725;51.170;4.442;2023-02-28T16:32:54;6.70;87.70
25923;DHT22;13725;51.170;4.442;2023-02-28T16:35:21;6.60;87.60
25923;DHT22;13725;51.170;4.442;2023-02-28T16:37:47;6.60;88.00
25923;DHT22;13725;51.170;4.442;2023-02-28T16:40:18;6.60;90.00
25923;DHT22;13725;51.170;4.442;2023-02-28T16:42:48;6.50;88.30
25923;DHT22;13725;51.170;4.442;2023-02-28T16:45:17;6.50;89.20
25923;DHT22;13725;51.170;4.442;2023-02-28T16:47:45;6.50;88.70
25923;DHT22;13725;51.170;4.442;2023-02-28T16:50:19;6.50;90.30
25923;DHT22;13725;51.170;4.442;2023-02-28T16:52:45;6.40;89.20
25923;DHT22;13725;51.170;4.442;2023-02-28T16:55:12;6.30;90.40
25923;DHT22;13725;51.170;4.442;2023-02-28T16:57:38;6.30;90.30
25923;DHT22;13725;51.170;4.442;2023-02-28T17:00:07;6.20;90.40
25923;DHT22;13725;51.170;4.442;2023-02-28T17:02:34;6.20;91.10
25923;DHT22;13725;51.170;4.442;2023-02-28T17:05:00;6.20;91.10
25923;DHT22;13725;51.170;4.442;2023-02-28T17:07:25;6.10;91.50
25923;DHT22;13725;51.170;4.442;2023-02-28T17:09:51;6.10;92.30
25923;DHT22;13725;51.170;4.442;2023-02-28T17:12:17;6.10;92.60
25923;DHT22;13725;51.170;4.442;2023-02-28T17:14:43;6.10;92.70
25923;DHT22;13725;51.170;4.442;2023-02-28T17:17:17;6.00;92.90
25923;DHT22;13725;51.170;4.442;2023-02-28T17:19:44;6.00;92.80
25923;DHT22;13725;51.170;4.442;2023-02-28T17:22:10;5.90;93.50
25923;DHT22;13725;51.170;4.442;2023-02-28T17:24:36;5.80;94.20
25923;DHT22;13725;51.170;4.442;2023-02-28T17:27:03;5.80;94.40
25923;DHT22;13725;51.170;4.442;2023-02-28T17:29:28;5.90;95.20
25923;DHT22;13725;51.170;4.442;2023-02-28T17:31:54;5.70;96.60
25923;DHT22;13725;51.170;4.442;2023-02-28T17:34:20;5.70;97.70
25923;DHT22;13725;51.170;4.442;2023-02-28T17:36:49;5.70;97.10
25923;DHT22;13725;51.170;4.442;2023-02-28T17:39:15;5.70;97.60
25923;DHT22;13725;51.170;4.442;2023-02-28T17:41:45;5.50;98.10
25923;DHT22;13725;51.170;4.442;2023-02-28T17:44:11;5.50;98.90
25923;DHT22;13725;51.170;4.442;2023-02-28T17:46:37;5.50;99.70
25923;DHT22;13725;51.170;4.442;2023-02-28T17:49:03;5.50;99.90
25923;DHT22;13725;51.170;4.442;2023-02-28T17:51:29;5.40;99.90
25923;DHT22;13725;51.170;4.442;2023-02-28T17:53:54;5.50;99.90
25923;DHT22;13725;51.170;4.442;2023-02-28T17:56:24;5.50;99.90
25923;DHT22;13725;51.170;4.442;2023-02-28T17:58:54;5.40;99.90
25923;DHT22;13725;51.170;4.442;2023-02-28T18:01:21;5.40;99.90
25923;DHT22;13725;51.170;4.442;2023-02-28T18:03:48;5.30;99.90
25923;DHT22;13725;51.170;4.442;2023-02-28T18:06:28;5.30;99.90
25923;DHT22;13725;51.170;4.442;2023-02-28T18:08:56;5.30;99.90
25923;DHT22;13725;51.170;4.442;2023-02-28T18:11:23;5.20;99.90
25923;DHT22;13725;51.170;4.442;2023-02-28T18:13:53;5.20;99.90